sensor_id;sensor_type;location;lat;lon;timestamp;temperature;humidity
66594;DHT22;53450;42.584;23.366;2024-03-29T00:01:21;8.52;63.97
66594;DHT22;53450;42.584;23.366;2024-03-29T00:03:46;8.78;63.85
66594;DHT22;53450;42.584;23.366;2024-03-29T00:06:12;8.67;63.35
66594;DHT22;53450;42.584;23.366;2024-03-29T00:08:37;8.73;64.44
66594;DHT22;53450;42.584;23.366;2024-03-29T00:11:03;8.75;64.42
66594;DHT22;53450;42.584;23.366;2024-03-29T00:13:29;8.71;63.88
66594;DHT22;53450;42.584;23.366;2024-03-29T00:15:54;8.59;63.97
66594;DHT22;53450;42.584;23.366;2024-03-29T00:18:20;8.65;63.37
66594;DHT22;53450;42.584;23.366;2024-03-29T00:20:45;8.86;62.24
66594;DHT22;53450;42.584;23.366;2024-03-29T00:23:11;8.86;62.54
66594;DHT22;53450;42.584;23.366;2024-03-29T00:25:37;9.06;63.74
66594;DHT22;53450;42.584;23.366;2024-03-29T00:28:02;8.95;64.19
66594;DHT22;53450;42.584;23.366;2024-03-29T00:30:28;8.83;65.42
66594;DHT22;53450;42.584;23.366;2024-03-29T00:32:54;8.72;65.24
66594;DHT22;53450;42.584;23.366;2024-03-29T00:35:20;8.52;66.37
66594;DHT22;53450;42.584;23.366;2024-03-29T00:37:48;8.28;67.02
66594;DHT22;53450;42.584;23.366;2024-03-29T00:40:14;8.13;67.61
66594;DHT22;53450;42.584;23.366;2024-03-29T00:42:40;8.07;68.06
66594;DHT22;53450;42.584;23.366;2024-03-29T00:45:06;8.00;68.14
66594;DHT22;53450;42.584;23.366;2024-03-29T00:47:33;7.90;67.85
66594;DHT22;53450;42.584;23.366;2024-03-29T00:49:59;7.90;68.36
66594;DHT22;53450;42.584;23.366;2024-03-29T00:52:25;7.85;68.60
66594;DHT22;53450;42.584;23.366;2024-03-29T00:54:50;7.83;67.93
66594;DHT22;53450;42.584;23.366;2024-03-29T00:57:16;7.79;68.52
66594;DHT22;53450;42.584;23.366;2024-03-29T00:59:42;7.73;68.56
66594;DHT22;53450;42.584;23.366;2024-03-29T01:02:09;7.70;69.06
66594;DHT22;53450;42.584;23.366;2024-03-29T01:04:35;7.65;68.47
66594;DHT22;53450;42.584;23.366;2024-03-29T01:07:01;7.54;70.13
66594;DHT22;53450;42.584;23.366;2024-03-29T01:09:26;7.51;69.65
66594;DHT22;53450;42.584;23.366;2024-03-29T01:11:52;7.41;70.40
66594;DHT22;53450;42.584;23.366;2024-03-29T01:14:19;7.34;70.59
66594;DHT22;53450;42.584;23.366;2024-03-29T01:16:44;7.28;70.37
66594;DHT22;53450;42.584;23.366;2024-03-29T01:19:10;7.27;70.60
66594;DHT22;53450;42.584;23.366;2024-03-29T01:21:36;7.28;70.53
66594;DHT22;53450;42.584;23.366;2024-03-29T01:24:02;7.34;70.65
66594;DHT22;53450;42.584;23.366;2024-03-29T01:26:28;7.32;70.35
66594;DHT22;53450;42.584;23.366;2024-03-29T01:28:54;7.27;70.24
66594;DHT22;53450;42.584;23.366;2024-03-29T01:31:19;7.24;70.21
66594;DHT22;53450;42.584;23.366;2024-03-29T01:33:45;7.21;70.02
66594;DHT22;53450;42.584;23.366;2024-03-29T01:36:10;7.21;70.12
66594;DHT22;53450;42.584;23.366;2024-03-29T01:38:36;7.21;70.52
66594;DHT22;53450;42.584;23.366;2024-03-29T01:41:02;7.21;70.37
66594;DHT22;53450;42.584;23.366;2024-03-29T01:43:28;7.15;69.97
66594;DHT22;53450;42.584;23.366;2024-03-29T01:45:55;7.24;70.05
66594;DHT22;53450;42.584;23.366;2024-03-29T01:48:22;7.27;69.72
66594;DHT22;53450;42.584;23.366;2024-03-29T01:50:49;7.28;70.13
66594;DHT22;53450;42.584;23.366;2024-03-29T01:53:16;7.25;70.57
66594;DHT22;53450;42.584;23.366;2024-03-29T01:55:43;7.24;70.62
66594;DHT22;53450;42.584;23.366;2024-03-29T01:58:09;7.22;70.61
66594;DHT22;53450;42.584;23.366;2024-03-29T02:00:41;7.20;70.78
66594;DHT22;53450;42.584;23.366;2024-03-29T02:03:09;7.17;70.62
66594;DHT22;53450;42.584;23.366;2024-03-29T02:05:41;7.14;70.69
66594;DHT22;53450;42.584;23.366;2024-03-29T02:08:08;7.05;70.98
66594;DHT22;53450;42.584;23.366;2024-03-29T02:10:39;7.01;71.29
66594;DHT22;53450;42.584;23.366;2024-03-29T02:13:05;6.99;71.27
66594;DHT22;53450;42.584;23.366;2024-03-29T02:15:31;6.93;71.84
66594;DHT22;53450;42.584;23.366;2024-03-29T02:17:57;6.91;72.08
66594;DHT22;53450;42.584;23.366;2024-03-29T02:20:23;6.87;72.27
66594;DHT22;53450;42.584;23.366;2024-03-29T02:23:11;6.87;71.84
66594;DHT22;53450;42.584;23.366;2024-03-29T02:25:39;6.83;72.51
66594;DHT22;53450;42.584;23.366;2024-03-29T02:28:05;6.83;72.22
66594;DHT22;53450;42.584;23.366;2024-03-29T02:30:31;6.79;72.34
66594;DHT22;53450;42.584;23.366;2024-03-29T02:32:57;6.72;72.27
66594;DHT22;53450;42.584;23.366;2024-03-29T02:35:23;6.54;72.74
66594;DHT22;53450;42.584;23.366;2024-03-29T02:37:49;6.63;72.92
66594;DHT22;53450;42.584;23.366;2024-03-29T02:40:15;6.63;73.14
66594;DHT22;53450;42.584;23.366;2024-03-29T02:42:41;6.59;73.00
66594;DHT22;53450;42.584;23.366;2024-03-29T02:45:07;6.57;73.18
66594;DHT22;53450;42.584;23.366;2024-03-29T02:47:33;6.49;73.30
66594;DHT22;53450;42.584;23.366;2024-03-29T02:49:59;6.36;73.18
66594;DHT22;53450;42.584;23.366;2024-03-29T02:52:24;6.33;73.56
66594;DHT22;53450;42.584;23.366;2024-03-29T02:54:50;6.18;73.39
66594;DHT22;53450;42.584;23.366;2024-03-29T02:57:15;6.21;73.66
66594;DHT22;53450;42.584;23.366;2024-03-29T02:59:41;6.28;74.13
66594;DHT22;53450;42.584;23.366;2024-03-29T03:02:07;6.18;73.56
66594;DHT22;53450;42.584;23.366;2024-03-29T03:04:33;6.08;74.06
66594;DHT22;53450;42.584;23.366;2024-03-29T03:06:58;6.08;74.43
66594;DHT22;53450;42.584;23.366;2024-03-29T03:09:44;6.00;74.67
66594;DHT22;53450;42.584;23.366;2024-03-29T03:12:31;6.00;75.29
66594;DHT22;53450;42.584;23.366;2024-03-29T03:14:57;6.02;75.44
66594;DHT22;53450;42.584;23.366;2024-03-29T03:17:25;6.05;75.12
66594;DHT22;53450;42.584;23.366;2024-03-29T03:19:51;6.05;75.03
66594;DHT22;53450;42.584;23.366;2024-03-29T03:22:17;6.08;74.96
66594;DHT22;53450;42.584;23.366;2024-03-29T03:24:43;6.17;73.96
66594;DHT22;53450;42.584;23.366;2024-03-29T03:27:09;6.21;73.92
66594;DHT22;53450;42.584;23.366;2024-03-29T03:29:34;6.26;74.21
66594;DHT22;53450;42.584;23.366;2024-03-29T03:32:00;6.22;73.77
66594;DHT22;53450;42.584;23.366;2024-03-29T03:34:26;6.22;73.40
66594;DHT22;53450;42.584;23.366;2024-03-29T03:36:51;6.18;73.60
66594;DHT22;53450;42.584;23.366;2024-03-29T03:39:17;6.35;73.92
66594;DHT22;53450;42.584;23.366;2024-03-29T03:41:42;6.48;73.44
66594;DHT22;53450;42.584;23.366;2024-03-29T03:44:08;6.38;73.44
66594;DHT22;53450;42.584;23.366;2024-03-29T03:46:33;6.41;73.82
66594;DHT22;53450;42.584;23.366;2024-03-29T03:48:59;6.42;73.70
66594;DHT22;53450;42.584;23.366;2024-03-29T03:51:25;6.52;72.84
66594;DHT22;53450;42.584;23.366;2024-03-29T03:53:50;6.54;73.14
66594;DHT22;53450;42.584;23.366;2024-03-29T03:56:16;6.60;72.77
66594;DHT22;53450;42.584;23.366;2024-03-29T03:58:44;6.59;72.72
66594;DHT22;53450;42.584;23.366;2024-03-29T04:01:09;6.54;72.93
66594;DHT22;53450;42.584;23.366;2024-03-29T04:03:35;6.52;72.67
66594;DHT22;53450;42.584;23.366;2024-03-29T04:06:04;6.59;73.01
66594;DHT22;53450;42.584;23.366;2024-03-29T04:08:30;6.49;72.77
66594;DHT22;53450;42.584;23.366;2024-03-29T04:10:56;6.45;72.98
66594;DHT22;53450;42.584;23.366;2024-03-29T04:13:22;6.43;73.56
66594;DHT22;53450;42.584;23.366;2024-03-29T04:15:47;6.33;73.91
66594;DHT22;53450;42.584;23.366;2024-03-29T04:18:13;6.24;74.52
66594;DHT22;53450;42.584;23.366;2024-03-29T04:20:39;6.25;74.48
66594;DHT22;53450;42.584;23.366;2024-03-29T04:23:05;6.20;74.81
66594;DHT22;53450;42.584;23.366;2024-03-29T04:25:31;6.21;74.76
66594;DHT22;53450;42.584;23.366;2024-03-29T04:27:57;6.21;74.62
66594;DHT22;53450;42.584;23.366;2024-03-29T04:30:22;6.20;74.81
66594;DHT22;53450;42.584;23.366;2024-03-29T04:32:48;6.21;74.66
66594;DHT22;53450;42.584;23.366;2024-03-29T04:35:13;6.22;74.56
66594;DHT22;53450;42.584;23.366;2024-03-29T04:37:39;6.35;74.92
66594;DHT22;53450;42.584;23.366;2024-03-29T04:40:05;6.35;74.83
66594;DHT22;53450;42.584;23.366;2024-03-29T04:42:31;6.33;74.76
66594;DHT22;53450;42.584;23.366;2024-03-29T04:44:57;6.36;74.67
66594;DHT22;53450;42.584;23.366;2024-03-29T04:47:23;6.39;75.19
66594;DHT22;53450;42.584;23.366;2024-03-29T04:49:48;6.42;75.30
66594;DHT22;53450;42.584;23.366;2024-03-29T04:52:14;6.39;75.07
66594;DHT22;53450;42.584;23.366;2024-03-29T04:54:40;6.52;74.88
66594;DHT22;53450;42.584;23.366;2024-03-29T04:57:05;6.62;74.58
66594;DHT22;53450;42.584;23.366;2024-03-29T04:59:34;6.73;74.61
66594;DHT22;53450;42.584;23.366;2024-03-29T05:02:00;6.77;74.71
66594;DHT22;53450;42.584;23.366;2024-03-29T05:04:25;6.96;74.71
66594;DHT22;53450;42.584;23.366;2024-03-29T05:06:55;7.10;73.32
66594;DHT22;53450;42.584;23.366;2024-03-29T05:09:21;7.18;72.65
66594;DHT22;53450;42.584;23.366;2024-03-29T05:11:47;7.32;71.92
66594;DHT22;53450;42.584;23.366;2024-03-29T05:14:17;7.47;72.10
66594;DHT22;53450;42.584;23.366;2024-03-29T05:16:47;7.41;72.06
66594;DHT22;53450;42.584;23.366;2024-03-29T05:19:13;7.62;71.54
66594;DHT22;53450;42.584;23.366;2024-03-29T05:21:39;7.79;71.97
66594;DHT22;53450;42.584;23.366;2024-03-29T05:24:05;7.93;71.62
66594;DHT22;53450;42.584;23.366;2024-03-29T05:26:31;8.20;70.57
66594;DHT22;53450;42.584;23.366;2024-03-29T05:28:57;8.24;69.94
66594;DHT22;53450;42.584;23.366;2024-03-29T05:31:24;8.30;68.57
66594;DHT22;53450;42.584;23.366;2024-03-29T05:33:50;8.30;68.82
66594;DHT22;53450;42.584;23.366;2024-03-29T05:36:16;8.42;68.63
66594;DHT22;53450;42.584;23.366;2024-03-29T05:38:42;8.41;68.66
66594;DHT22;53450;42.584;23.366;2024-03-29T05:41:07;8.55;68.73
66594;DHT22;53450;42.584;23.366;2024-03-29T05:43:33;8.82;68.17
66594;DHT22;53450;42.584;23.366;2024-03-29T05:45:59;8.99;67.33
66594;DHT22;53450;42.584;23.366;2024-03-29T05:48:29;9.31;65.86
66594;DHT22;53450;42.584;23.366;2024-03-29T05:50:54;9.73;64.45
66594;DHT22;53450;42.584;23.366;2024-03-29T05:53:20;10.02;62.43
66594;DHT22;53450;42.584;23.366;2024-03-29T05:55:46;10.49;60.11
66594;DHT22;53450;42.584;23.366;2024-03-29T05:58:11;10.70;59.15
66594;DHT22;53450;42.584;23.366;2024-03-29T06:00:42;10.95;58.86
66594;DHT22;53450;42.584;23.366;2024-03-29T06:03:08;11.01;58.67
66594;DHT22;53450;42.584;23.366;2024-03-29T06:05:34;11.21;57.75
66594;DHT22;53450;42.584;23.366;2024-03-29T06:08:00;11.28;57.96
66594;DHT22;53450;42.584;23.366;2024-03-29T06:10:25;11.46;57.10
66594;DHT22;53450;42.584;23.366;2024-03-29T06:12:51;11.52;56.64
66594;DHT22;53450;42.584;23.366;2024-03-29T06:15:16;11.69;56.71
66594;DHT22;53450;42.584;23.366;2024-03-29T06:18:01;11.80;56.14
66594;DHT22;53450;42.584;23.366;2024-03-29T06:20:26;11.91;56.95
66594;DHT22;53450;42.584;23.366;2024-03-29T06:22:52;11.97;55.58
66594;DHT22;53450;42.584;23.366;2024-03-29T06:25:17;12.10;55.44
66594;DHT22;53450;42.584;23.366;2024-03-29T06:27:43;12.21;54.89
66594;DHT22;53450;42.584;23.366;2024-03-29T06:30:13;12.31;55.66
66594;DHT22;53450;42.584;23.366;2024-03-29T06:32:39;12.46;54.95
66594;DHT22;53450;42.584;23.366;2024-03-29T06:35:05;12.51;54.33
66594;DHT22;53450;42.584;23.366;2024-03-29T06:37:32;12.49;54.27
66594;DHT22;53450;42.584;23.366;2024-03-29T06:39:57;12.44;53.75
66594;DHT22;53450;42.584;23.366;2024-03-29T06:42:23;12.45;54.16
66594;DHT22;53450;42.584;23.366;2024-03-29T06:44:48;12.44;54.06
66594;DHT22;53450;42.584;23.366;2024-03-29T06:47:15;12.56;53.84
66594;DHT22;53450;42.584;23.366;2024-03-29T06:49:40;12.62;53.71
66594;DHT22;53450;42.584;23.366;2024-03-29T06:52:06;12.62;53.16
66594;DHT22;53450;42.584;23.366;2024-03-29T06:54:32;12.82;52.81
66594;DHT22;53450;42.584;23.366;2024-03-29T06:56:58;12.82;53.36
66594;DHT22;53450;42.584;23.366;2024-03-29T06:59:24;12.85;52.69
66594;DHT22;53450;42.584;23.366;2024-03-29T07:01:51;12.95;52.93
66594;DHT22;53450;42.584;23.366;2024-03-29T07:04:23;13.10;52.26
66594;DHT22;53450;42.584;23.366;2024-03-29T07:06:50;13.14;51.88
66594;DHT22;53450;42.584;23.366;2024-03-29T07:09:20;13.09;52.24
66594;DHT22;53450;42.584;23.366;2024-03-29T07:11:46;13.07;51.81
66594;DHT22;53450;42.584;23.366;2024-03-29T07:14:14;13.23;51.84
66594;DHT22;53450;42.584;23.366;2024-03-29T07:16:39;13.24;51.81
66594;DHT22;53450;42.584;23.366;2024-03-29T07:19:05;13.28;51.97
66594;DHT22;53450;42.584;23.366;2024-03-29T07:21:30;13.31;51.74
66594;DHT22;53450;42.584;23.366;2024-03-29T07:23:56;13.34;51.17
66594;DHT22;53450;42.584;23.366;2024-03-29T07:26:22;13.50;51.73
66594;DHT22;53450;42.584;23.366;2024-03-29T07:28:47;13.68;51.33
66594;DHT22;53450;42.584;23.366;2024-03-29T07:31:13;13.77;50.71
66594;DHT22;53450;42.584;23.366;2024-03-29T07:33:39;13.83;50.41
66594;DHT22;53450;42.584;23.366;2024-03-29T07:36:05;13.89;50.51
66594;DHT22;53450;42.584;23.366;2024-03-29T07:38:31;13.95;50.10
66594;DHT22;53450;42.584;23.366;2024-03-29T07:40:57;14.01;50.91
66594;DHT22;53450;42.584;23.366;2024-03-29T07:43:23;14.04;50.23
66594;DHT22;53450;42.584;23.366;2024-03-29T07:45:48;14.10;50.63
66594;DHT22;53450;42.584;23.366;2024-03-29T07:48:16;14.30;50.30
66594;DHT22;53450;42.584;23.366;2024-03-29T07:50:46;14.44;48.87
66594;DHT22;53450;42.584;23.366;2024-03-29T07:53:12;14.50;49.39
66594;DHT22;53450;42.584;23.366;2024-03-29T07:55:39;14.60;49.46
66594;DHT22;53450;42.584;23.366;2024-03-29T07:58:06;14.87;49.81
66594;DHT22;53450;42.584;23.366;2024-03-29T08:00:34;14.94;48.28
66594;DHT22;53450;42.584;23.366;2024-03-29T08:03:01;15.14;47.70
66594;DHT22;53450;42.584;23.366;2024-03-29T08:05:39;15.09;48.26
66594;DHT22;53450;42.584;23.366;2024-03-29T08:08:08;15.01;48.60
66594;DHT22;53450;42.584;23.366;2024-03-29T08:10:40;15.24;47.96
66594;DHT22;53450;42.584;23.366;2024-03-29T08:16:53;15.47;47.60
66594;DHT22;53450;42.584;23.366;2024-03-29T08:19:20;15.43;46.83
66594;DHT22;53450;42.584;23.366;2024-03-29T08:21:45;15.42;46.98
66594;DHT22;53450;42.584;23.366;2024-03-29T08:24:11;15.53;46.40
66594;DHT22;53450;42.584;23.366;2024-03-29T08:26:37;15.71;45.58
66594;DHT22;53450;42.584;23.366;2024-03-29T08:29:02;15.71;46.37
66594;DHT22;53450;42.584;23.366;2024-03-29T08:31:28;15.74;46.34
66594;DHT22;53450;42.584;23.366;2024-03-29T08:33:54;15.74;46.59
66594;DHT22;53450;42.584;23.366;2024-03-29T08:36:19;15.94;47.39
66594;DHT22;53450;42.584;23.366;2024-03-29T08:38:45;15.98;45.92
66594;DHT22;53450;42.584;23.366;2024-03-29T08:41:12;16.08;45.44
66594;DHT22;53450;42.584;23.366;2024-03-29T08:43:37;16.17;44.93
66594;DHT22;53450;42.584;23.366;2024-03-29T08:46:03;16.20;46.16
66594;DHT22;53450;42.584;23.366;2024-03-29T08:48:29;16.35;45.73
66594;DHT22;53450;42.584;23.366;2024-03-29T08:50:55;16.52;45.01
66594;DHT22;53450;42.584;23.366;2024-03-29T08:53:21;16.77;44.34
66594;DHT22;53450;42.584;23.366;2024-03-29T08:55:48;16.96;44.63
66594;DHT22;53450;42.584;23.366;2024-03-29T08:58:14;16.87;42.42
66594;DHT22;53450;42.584;23.366;2024-03-29T09:00:40;16.87;42.75
66594;DHT22;53450;42.584;23.366;2024-03-29T09:03:05;16.90;42.42
66594;DHT22;53450;42.584;23.366;2024-03-29T09:05:31;17.00;42.34
66594;DHT22;53450;42.584;23.366;2024-03-29T09:07:56;16.97;42.49
66594;DHT22;53450;42.584;23.366;2024-03-29T09:10:23;17.00;42.22
66594;DHT22;53450;42.584;23.366;2024-03-29T09:12:50;17.03;41.02
66594;DHT22;53450;42.584;23.366;2024-03-29T09:15:15;17.11;41.41
66594;DHT22;53450;42.584;23.366;2024-03-29T09:17:42;17.16;41.72
66594;DHT22;53450;42.584;23.366;2024-03-29T09:20:08;17.17;41.57
66594;DHT22;53450;42.584;23.366;2024-03-29T09:22:34;17.26;41.74
66594;DHT22;53450;42.584;23.366;2024-03-29T09:25:00;17.17;42.34
66594;DHT22;53450;42.584;23.366;2024-03-29T09:27:27;17.27;41.85
66594;DHT22;53450;42.584;23.366;2024-03-29T09:29:54;17.35;42.09
66594;DHT22;53450;42.584;23.366;2024-03-29T09:32:19;17.37;40.65
66594;DHT22;53450;42.584;23.366;2024-03-29T09:34:46;17.47;41.69
66594;DHT22;53450;42.584;23.366;2024-03-29T09:37:12;17.28;40.98
66594;DHT22;53450;42.584;23.366;2024-03-29T09:39:38;17.37;41.24
66594;DHT22;53450;42.584;23.366;2024-03-29T09:42:06;17.52;41.17
66594;DHT22;53450;42.584;23.366;2024-03-29T09:44:33;17.65;41.10
66594;DHT22;53450;42.584;23.366;2024-03-29T09:47:03;17.65;40.49
66594;DHT22;53450;42.584;23.366;2024-03-29T09:49:30;17.79;39.83
66594;DHT22;53450;42.584;23.366;2024-03-29T09:51:58;17.64;39.98
66594;DHT22;53450;42.584;23.366;2024-03-29T09:54:24;17.62;39.84
66594;DHT22;53450;42.584;23.366;2024-03-29T09:56:52;17.67;40.25
66594;DHT22;53450;42.584;23.366;2024-03-29T09:59:17;17.71;39.26
66594;DHT22;53450;42.584;23.366;2024-03-29T10:01:43;17.79;40.08
66594;DHT22;53450;42.584;23.366;2024-03-29T10:04:09;17.72;39.42
66594;DHT22;53450;42.584;23.366;2024-03-29T10:06:37;17.86;39.86
66594;DHT22;53450;42.584;23.366;2024-03-29T10:09:04;18.02;39.72
66594;DHT22;53450;42.584;23.366;2024-03-29T10:11:30;18.09;40.73
66594;DHT22;53450;42.584;23.366;2024-03-29T10:13:56;18.33;40.53
66594;DHT22;53450;42.584;23.366;2024-03-29T10:16:21;18.44;38.83
66594;DHT22;53450;42.584;23.366;2024-03-29T10:18:49;18.23;39.41
66594;DHT22;53450;42.584;23.366;2024-03-29T10:21:15;18.19;40.99
66594;DHT22;53450;42.584;23.366;2024-03-29T10:23:41;18.26;39.62
66594;DHT22;53450;42.584;23.366;2024-03-29T10:26:09;18.29;40.35
66594;DHT22;53450;42.584;23.366;2024-03-29T10:28:39;18.49;39.89
66594;DHT22;53450;42.584;23.366;2024-03-29T10:31:05;18.65;38.80
66594;DHT22;53450;42.584;23.366;2024-03-29T10:33:33;18.68;39.24
66594;DHT22;53450;42.584;23.366;2024-03-29T10:36:00;18.78;40.53
66594;DHT22;53450;42.584;23.366;2024-03-29T10:38:26;18.60;39.16
66594;DHT22;53450;42.584;23.366;2024-03-29T10:40:53;18.54;40.27
66594;DHT22;53450;42.584;23.366;2024-03-29T10:43:19;18.65;39.16
66594;DHT22;53450;42.584;23.366;2024-03-29T10:45:48;18.71;39.79
66594;DHT22;53450;42.584;23.366;2024-03-29T10:48:16;18.95;39.36
66594;DHT22;53450;42.584;23.366;2024-03-29T10:50:43;19.01;40.14
66594;DHT22;53450;42.584;23.366;2024-03-29T10:53:09;19.16;38.98
66594;DHT22;53450;42.584;23.366;2024-03-29T10:55:37;19.12;38.36
66594;DHT22;53450;42.584;23.366;2024-03-29T10:58:07;19.35;38.19
66594;DHT22;53450;42.584;23.366;2024-03-29T11:00:43;19.37;37.76
66594;DHT22;53450;42.584;23.366;2024-03-29T11:03:12;19.49;38.47
66594;DHT22;53450;42.584;23.366;2024-03-29T11:05:50;19.55;37.38
66594;DHT22;53450;42.584;23.366;2024-03-29T11:08:23;19.33;37.62
66594;DHT22;53450;42.584;23.366;2024-03-29T11:10:51;19.37;37.19
66594;DHT22;53450;42.584;23.366;2024-03-29T11:13:34;19.52;37.61
66594;DHT22;53450;42.584;23.366;2024-03-29T11:16:03;19.40;37.15
66594;DHT22;53450;42.584;23.366;2024-03-29T11:18:29;19.70;36.09
66594;DHT22;53450;42.584;23.366;2024-03-29T11:20:58;19.76;36.54
66594;DHT22;53450;42.584;23.366;2024-03-29T11:23:26;19.83;36.59
66594;DHT22;53450;42.584;23.366;2024-03-29T11:25:53;19.83;36.87
66594;DHT22;53450;42.584;23.366;2024-03-29T11:28:34;19.67;37.20
66594;DHT22;53450;42.584;23.366;2024-03-29T11:31:08;19.78;37.77
66594;DHT22;53450;42.584;23.366;2024-03-29T11:36:17;20.04;36.55
66594;DHT22;53450;42.584;23.366;2024-03-29T11:38:45;19.91;36.39
66594;DHT22;53450;42.584;23.366;2024-03-29T11:41:22;19.93;36.90
66594;DHT22;53450;42.584;23.366;2024-03-29T11:43:50;19.94;36.84
66594;DHT22;53450;42.584;23.366;2024-03-29T11:46:16;19.87;36.30
66594;DHT22;53450;42.584;23.366;2024-03-29T11:48:42;20.14;36.76
66594;DHT22;53450;42.584;23.366;2024-03-29T11:51:12;20.05;37.36
66594;DHT22;53450;42.584;23.366;2024-03-29T11:53:39;20.00;37.27
66594;DHT22;53450;42.584;23.366;2024-03-29T11:56:05;20.04;36.45
66594;DHT22;53450;42.584;23.366;2024-03-29T11:58:33;19.91;36.84
66594;DHT22;53450;42.584;23.366;2024-03-29T12:00:59;19.80;37.81
66594;DHT22;53450;42.584;23.366;2024-03-29T12:03:27;19.81;37.12
66594;DHT22;53450;42.584;23.366;2024-03-29T12:05:54;19.78;36.69
66594;DHT22;53450;42.584;23.366;2024-03-29T12:08:24;19.81;37.84
66594;DHT22;53450;42.584;23.366;2024-03-29T12:10:50;19.86;36.71
66594;DHT22;53450;42.584;23.366;2024-03-29T12:13:17;19.97;37.69
66594;DHT22;53450;42.584;23.366;2024-03-29T12:15:43;19.95;36.92
66594;DHT22;53450;42.584;23.366;2024-03-29T12:18:09;19.93;37.37
66594;DHT22;53450;42.584;23.366;2024-03-29T12:20:38;19.87;37.65
66594;DHT22;53450;42.584;23.366;2024-03-29T12:23:06;19.77;38.22
66594;DHT22;53450;42.584;23.366;2024-03-29T12:25:33;19.67;37.91
66594;DHT22;53450;42.584;23.366;2024-03-29T12:28:00;19.74;37.82
66594;DHT22;53450;42.584;23.366;2024-03-29T12:30:26;19.80;37.70
66594;DHT22;53450;42.584;23.366;2024-03-29T12:35:37;19.73;38.49
66594;DHT22;53450;42.584;23.366;2024-03-29T12:38:04;19.67;39.33
66594;DHT22;53450;42.584;23.366;2024-03-29T12:40:32;19.77;38.65
66594;DHT22;53450;42.584;23.366;2024-03-29T12:43:07;19.90;38.29
66594;DHT22;53450;42.584;23.366;2024-03-29T12:45:34;19.93;38.33
66594;DHT22;53450;42.584;23.366;2024-03-29T12:48:00;19.87;39.13
66594;DHT22;53450;42.584;23.366;2024-03-29T12:50:28;20.17;39.35
66594;DHT22;53450;42.584;23.366;2024-03-29T12:52:56;20.14;38.64
66594;DHT22;53450;42.584;23.366;2024-03-29T12:55:23;20.22;38.58
66594;DHT22;53450;42.584;23.366;2024-03-29T12:57:50;20.21;39.13
66594;DHT22;53450;42.584;23.366;2024-03-29T13:00:22;20.17;36.98
66594;DHT22;53450;42.584;23.366;2024-03-29T13:02:48;20.26;38.09
66594;DHT22;53450;42.584;23.366;2024-03-29T13:05:14;20.14;38.26
66594;DHT22;53450;42.584;23.366;2024-03-29T13:07:40;20.28;38.43
66594;DHT22;53450;42.584;23.366;2024-03-29T13:10:06;20.36;37.21
66594;DHT22;53450;42.584;23.366;2024-03-29T13:12:39;20.34;38.05
66594;DHT22;53450;42.584;23.366;2024-03-29T13:15:21;20.35;38.46
66594;DHT22;53450;42.584;23.366;2024-03-29T13:17:49;20.29;38.34
66594;DHT22;53450;42.584;23.366;2024-03-29T13:20:16;20.15;39.06
66594;DHT22;53450;42.584;23.366;2024-03-29T13:22:42;19.97;39.02
66594;DHT22;53450;42.584;23.366;2024-03-29T13:25:10;20.15;38.89
66594;DHT22;53450;42.584;23.366;2024-03-29T13:27:40;20.17;39.52
66594;DHT22;53450;42.584;23.366;2024-03-29T13:30:08;20.11;39.04
66594;DHT22;53450;42.584;23.366;2024-03-29T13:32:35;20.01;38.26
66594;DHT22;53450;42.584;23.366;2024-03-29T13:35:00;20.14;39.14
66594;DHT22;53450;42.584;23.366;2024-03-29T13:37:27;20.20;38.58
66594;DHT22;53450;42.584;23.366;2024-03-29T13:39:54;20.25;38.73
66594;DHT22;53450;42.584;23.366;2024-03-29T13:42:20;20.35;38.63
66594;DHT22;53450;42.584;23.366;2024-03-29T13:44:49;20.38;39.04
66594;DHT22;53450;42.584;23.366;2024-03-29T13:47:15;20.26;39.23
66594;DHT22;53450;42.584;23.366;2024-03-29T13:49:42;20.35;38.65
66594;DHT22;53450;42.584;23.366;2024-03-29T13:52:08;20.31;38.83
66594;DHT22;53450;42.584;23.366;2024-03-29T13:54:34;20.13;38.47
66594;DHT22;53450;42.584;23.366;2024-03-29T13:57:00;20.14;38.21
66594;DHT22;53450;42.584;23.366;2024-03-29T13:59:27;20.11;37.93
66594;DHT22;53450;42.584;23.366;2024-03-29T14:01:53;20.25;38.12
66594;DHT22;53450;42.584;23.366;2024-03-29T14:04:18;20.28;36.95
66594;DHT22;53450;42.584;23.366;2024-03-29T14:06:44;20.34;37.55
66594;DHT22;53450;42.584;23.366;2024-03-29T14:09:09;20.28;38.77
66594;DHT22;53450;42.584;23.366;2024-03-29T14:11:35;20.21;37.79
66594;DHT22;53450;42.584;23.366;2024-03-29T14:14:01;20.39;38.19
66594;DHT22;53450;42.584;23.366;2024-03-29T14:16:26;20.49;37.80
66594;DHT22;53450;42.584;23.366;2024-03-29T14:18:52;20.51;37.34
66594;DHT22;53450;42.584;23.366;2024-03-29T14:21:17;20.53;38.28
66594;DHT22;53450;42.584;23.366;2024-03-29T14:23:43;20.49;37.19
66594;DHT22;53450;42.584;23.366;2024-03-29T14:26:09;20.51;37.30
66594;DHT22;53450;42.584;23.366;2024-03-29T14:28:34;20.65;37.98
66594;DHT22;53450;42.584;23.366;2024-03-29T14:31:01;20.57;37.18
66594;DHT22;53450;42.584;23.366;2024-03-29T14:33:26;20.61;36.74
66594;DHT22;53450;42.584;23.366;2024-03-29T14:35:52;20.59;36.74
66594;DHT22;53450;42.584;23.366;2024-03-29T14:38:18;20.77;36.59
66594;DHT22;53450;42.584;23.366;2024-03-29T14:40:46;20.75;36.59
66594;DHT22;53450;42.584;23.366;2024-03-29T14:43:11;20.89;36.05
66594;DHT22;53450;42.584;23.366;2024-03-29T14:45:40;20.90;36.55
66594;DHT22;53450;42.584;23.366;2024-03-29T14:48:06;20.87;35.96
66594;DHT22;53450;42.584;23.366;2024-03-29T14:50:32;21.02;36.16
66594;DHT22;53450;42.584;23.366;2024-03-29T14:52:58;21.00;36.13
66594;DHT22;53450;42.584;23.366;2024-03-29T14:55:23;21.06;35.58
66594;DHT22;53450;42.584;23.366;2024-03-29T14:57:49;21.11;35.94
66594;DHT22;53450;42.584;23.366;2024-03-29T15:00:15;21.13;35.78
66594;DHT22;53450;42.584;23.366;2024-03-29T15:02:41;21.17;35.73
66594;DHT22;53450;42.584;23.366;2024-03-29T15:05:08;21.15;35.17
66594;DHT22;53450;42.584;23.366;2024-03-29T15:07:36;21.19;34.47
66594;DHT22;53450;42.584;23.366;2024-03-29T15:10:02;21.27;34.51
66594;DHT22;53450;42.584;23.366;2024-03-29T15:12:38;21.26;35.17
66594;DHT22;53450;42.584;23.366;2024-03-29T15:15:05;21.15;35.15
66594;DHT22;53450;42.584;23.366;2024-03-29T15:17:31;21.15;35.56
66594;DHT22;53450;42.584;23.366;2024-03-29T15:19:57;21.23;35.37
66594;DHT22;53450;42.584;23.366;2024-03-29T15:22:23;21.21;35.76
66594;DHT22;53450;42.584;23.366;2024-03-29T15:24:49;21.20;35.94
66594;DHT22;53450;42.584;23.366;2024-03-29T15:27:15;21.11;35.82
66594;DHT22;53450;42.584;23.366;2024-03-29T15:30:01;21.17;35.52